Time;durP1;ratioP1;P1;durP2;ratioP2;P2;SDS_P1;SDS_P2;PMS_P1;PMS_P2;Temp;Humidity;BMP_temperature;BMP_pressure;BME280_temperature;BME280_humidity;BME280_pressure;Samples;Min_cycle;Max_cycle;Signal;HPM_P1;HPM_P2
2021/07/02 00:01:40;;;;;;;394.23;72.78;;;12.70;99.90;;;;;;4991802;28;20092;-80
2021/07/02 00:04:08;;;;;;;383.20;74.25;;;12.80;99.90;;;;;;4976981;28;20174;-79
2021/07/02 00:06:35;;;;;;;475.33;83.00;;;12.70;99.90;;;;;;4968391;28;20089;-79
2021/07/02 00:09:02;;;;;;;635.50;100.43;;;12.70;99.90;;;;;;4976556;28;20057;-81
2021/07/02 00:11:29;;;;;;;617.67;98.38;;;12.80;99.90;;;;;;4980363;28;20118;-81
2021/07/02 00:13:56;;;;;;;510.73;86.82;;;12.80;99.90;;;;;;4960703;28;20066;-84
2021/07/02 00:16:23;;;;;;;630.88;99.35;;;12.70;99.90;;;;;;4992643;28;20429;-80
2021/07/02 00:18:50;;;;;;;648.58;106.85;;;12.70;99.90;;;;;;4976049;28;20142;-82
2021/07/02 00:21:17;;;;;;;772.70;110.85;;;12.70;99.90;;;;;;4977249;28;20550;-81
2021/07/02 00:23:44;;;;;;;726.55;107.80;;;12.80;99.90;;;;;;4974803;28;20227;-81
2021/07/02 00:26:12;;;;;;;669.97;103.70;;;12.80;99.90;;;;;;4959072;28;20038;-84
2021/07/02 00:28:39;;;;;;;829.88;126.05;;;12.70;99.90;;;;;;4976384;28;20046;-83
2021/07/02 00:31:05;;;;;;;700.40;107.38;;;12.80;99.90;;;;;;4957372;28;20467;-81
2021/07/02 00:33:33;;;;;;;652.08;107.18;;;12.70;99.90;;;;;;4954357;28;20061;-82
2021/07/02 00:36:00;;;;;;;812.90;122.30;;;12.80;99.90;;;;;;4957528;28;20050;-80
2021/07/02 00:38:27;;;;;;;831.50;123.72;;;12.80;99.90;;;;;;4958984;28;20054;-81
2021/07/02 00:40:54;;;;;;;737.40;117.60;;;12.80;99.90;;;;;;4959411;28;20150;-81
2021/07/02 00:43:23;;;;;;;773.33;121.38;;;12.80;99.90;;;;;;4978522;28;20050;-79
2021/07/02 00:45:50;;;;;;;737.28;113.43;;;12.80;99.90;;;;;;4956339;28;20050;-83
2021/07/02 00:48:17;;;;;;;801.22;124.28;;;12.80;99.90;;;;;;4969666;28;20055;-79
2021/07/02 00:50:49;;;;;;;797.53;115.47;;;12.70;99.90;;;;;;4981549;28;20050;-82
2021/07/02 00:53:16;;;;;;;929.78;140.00;;;12.70;99.90;;;;;;4973990;28;20143;-82
2021/07/02 00:55:44;;;;;;;940.47;138.73;;;12.70;99.90;;;;;;4990622;28;20049;-80
2021/07/02 00:58:11;;;;;;;953.45;139.95;;;12.80;99.90;;;;;;4971494;28;20073;-81
2021/07/02 01:00:39;;;;;;;782.30;120.68;;;12.80;99.90;;;;;;4975779;28;20045;-82
2021/07/02 01:03:07;;;;;;;903.20;138.40;;;12.70;99.90;;;;;;4950956;28;20050;-81
2021/07/02 01:05:34;;;;;;;851.80;133.98;;;12.80;99.90;;;;;;4965223;28;20058;-81
2021/07/02 01:08:04;;;;;;;998.95;147.18;;;12.70;99.90;;;;;;4960335;28;20149;-81
2021/07/02 01:10:32;;;;;;;937.78;140.60;;;12.70;99.90;;;;;;4941306;28;20686;-80
2021/07/02 01:12:59;;;;;;;986.67;147.23;;;12.80;99.90;;;;;;4968283;28;20050;-80
2021/07/02 01:15:27;;;;;;;784.25;122.45;;;12.80;99.90;;;;;;4973558;28;20109;-80
2021/07/02 01:18:10;;;;;;;784.13;125.20;;;12.80;99.90;;;;;;4957038;28;20333;-81
2021/07/02 01:20:40;;;;;;;912.95;134.45;;;12.80;99.90;;;;;;4986858;28;20046;-81
2021/07/02 01:23:07;;;;;;;991.33;145.80;;;12.80;99.90;;;;;;4956281;28;20042;-81
2021/07/02 01:25:35;;;;;;;835.72;124.57;;;12.70;99.90;;;;;;4958909;28;20159;-81
2021/07/02 01:28:08;;;;;;;855.20;135.10;;;12.80;99.90;;;;;;4959811;28;20046;-81
2021/07/02 01:30:36;;;;;;;679.05;117.05;;;12.80;99.90;;;;;;4942659;28;20644;-81
2021/07/02 01:33:04;;;;;;;754.10;122.47;;;12.80;99.90;;;;;;4964167;28;20038;-82
2021/07/02 01:35:32;;;;;;;769.28;128.68;;;12.80;99.90;;;;;;4990946;28;20046;-81
2021/07/02 01:37:59;;;;;;;770.88;126.40;;;12.80;99.90;;;;;;4967598;28;20109;-83
2021/07/02 01:40:31;;;;;;;770.20;128.02;;;12.70;99.90;;;;;;4959515;28;20046;-81
2021/07/02 01:43:02;;;;;;;793.08;129.32;;;12.70;99.90;;;;;;4976222;28;20620;-80
2021/07/02 01:45:32;;;;;;;772.28;120.50;;;12.70;99.90;;;;;;4986363;28;20047;-79
2021/07/02 01:48:00;;;;;;;757.03;129.90;;;12.70;99.90;;;;;;5013262;28;20047;-81
2021/07/02 01:50:30;;;;;;;711.63;121.15;;;12.70;99.90;;;;;;4944506;28;20524;-82
2021/07/02 01:52:57;;;;;;;691.15;117.65;;;12.70;99.90;;;;;;4966554;28;20062;-79
2021/07/02 01:55:25;;;;;;;690.65;119.20;;;12.70;99.90;;;;;;4966993;28;20039;-81
2021/07/02 01:57:57;;;;;;;688.75;115.32;;;12.70;99.90;;;;;;4994667;28;20089;-82
2021/07/02 02:00:36;;;;;;;706.97;118.45;;;12.70;99.90;;;;;;4963144;28;20046;-81
2021/07/02 02:03:09;;;;;;;725.47;125.03;;;12.70;99.90;;;;;;4948994;28;20081;-80
2021/07/02 02:05:37;;;;;;;735.17;123.32;;;12.80;99.90;;;;;;4944524;28;20057;-81
2021/07/02 02:08:04;;;;;;;783.17;126.53;;;12.80;99.90;;;;;;4989732;28;20101;-79
2021/07/02 02:10:32;;;;;;;697.50;118.43;;;12.80;99.90;;;;;;4941186;28;20042;-80
2021/07/02 02:13:02;;;;;;;686.00;118.57;;;12.80;99.90;;;;;;4987838;28;20050;-80
2021/07/02 02:15:30;;;;;;;676.65;120.05;;;12.70;99.90;;;;;;4991167;28;20054;-81
2021/07/02 02:17:57;;;;;;;683.08;115.25;;;12.70;99.90;;;;;;4979694;28;20069;-80
2021/07/02 02:20:26;;;;;;;743.05;123.22;;;12.80;99.90;;;;;;4978437;28;20069;-78
2021/07/02 02:22:53;;;;;;;583.53;105.18;;;12.80;99.90;;;;;;4951627;28;20074;-82
2021/07/02 02:25:22;;;;;;;489.23;101.82;;;12.80;99.90;;;;;;4995393;28;20051;-79
2021/07/02 02:27:51;;;;;;;481.88;97.55;;;12.80;99.90;;;;;;4943417;28;20051;-79
2021/07/02 02:30:18;;;;;;;502.40;97.05;;;12.80;99.90;;;;;;4976781;28;20050;-78
2021/07/02 02:32:45;;;;;;;519.22;101.22;;;12.90;99.90;;;;;;4983958;28;20066;-79
2021/07/02 02:35:21;;;;;;;533.33;102.07;;;12.90;99.90;;;;;;4978612;28;20078;-80
2021/07/02 02:37:52;;;;;;;427.58;93.90;;;12.80;99.90;;;;;;4963920;28;20077;-80
2021/07/02 02:40:19;;;;;;;414.45;93.30;;;12.90;99.90;;;;;;4980493;28;20070;-80
2021/07/02 02:42:46;;;;;;;382.40;90.13;;;12.90;99.90;;;;;;4956259;28;20241;-80
2021/07/02 02:45:13;;;;;;;340.05;81.53;;;12.90;99.90;;;;;;4982963;28;20052;-79
2021/07/02 02:47:40;;;;;;;319.45;81.07;;;12.80;99.90;;;;;;5000374;28;20042;-80
2021/07/02 02:50:08;;;;;;;372.00;87.18;;;12.80;99.90;;;;;;4978442;28;20690;-78
2021/07/02 02:52:36;;;;;;;349.23;84.47;;;12.80;99.90;;;;;;4984653;28;20094;-81
2021/07/02 02:55:05;;;;;;;371.35;86.70;;;12.80;99.90;;;;;;4994092;28;20054;-81
2021/07/02 02:57:32;;;;;;;383.40;84.63;;;12.80;99.90;;;;;;4960565;28;20055;-79
2021/07/02 02:59:59;;;;;;;407.20;90.22;;;12.90;99.90;;;;;;4956648;28;20552;-78
2021/07/02 03:02:26;;;;;;;409.88;86.60;;;12.80;99.90;;;;;;4987009;28;20057;-81
2021/07/02 03:04:55;;;;;;;415.30;88.70;;;12.80;99.90;;;;;;4991662;28;20513;-80
2021/07/02 03:07:24;;;;;;;404.35;84.50;;;12.70;99.90;;;;;;4976429;28;20065;-79
2021/07/02 03:09:56;;;;;;;349.42;80.57;;;12.70;99.90;;;;;;4976393;28;20054;-79
2021/07/02 03:12:23;;;;;;;320.17;74.57;;;12.70;99.90;;;;;;4958528;28;20086;-81
2021/07/02 03:14:53;;;;;;;366.60;81.18;;;12.80;99.90;;;;;;4943784;28;20066;-79
2021/07/02 03:17:21;;;;;;;431.50;85.90;;;12.80;99.90;;;;;;4959330;28;20130;-79
2021/07/02 03:19:49;;;;;;;474.25;96.82;;;12.80;99.90;;;;;;4953053;28;20049;-79
2021/07/02 03:22:18;;;;;;;534.58;98.85;;;12.80;99.90;;;;;;4961113;28;20056;-80
2021/07/02 03:24:47;;;;;;;530.08;97.68;;;12.80;99.90;;;;;;4961243;28;20038;-81
2021/07/02 03:27:15;;;;;;;482.92;93.45;;;12.80;99.90;;;;;;4956012;28;20514;-80
2021/07/02 03:29:44;;;;;;;542.40;101.13;;;12.80;99.90;;;;;;4975251;28;20042;-80
2021/07/02 03:32:11;;;;;;;545.42;99.35;;;12.80;99.90;;;;;;4944846;28;20046;-82
2021/07/02 03:34:44;;;;;;;513.60;96.30;;;12.80;99.90;;;;;;4963059;28;20137;-80
2021/07/02 03:37:17;;;;;;;530.17;99.07;;;12.80;99.90;;;;;;4976731;28;20081;-80
2021/07/02 03:39:47;;;;;;;597.88;107.03;;;12.80;99.90;;;;;;4961495;28;20052;-80
2021/07/02 03:42:15;;;;;;;360.17;85.82;;;12.70;99.90;;;;;;4966423;28;20130;-80
2021/07/02 03:44:41;;;;;;;460.35;93.38;;;12.70;99.90;;;;;;4974332;28;20039;-79
2021/07/02 03:47:09;;;;;;;428.60;93.07;;;12.70;99.90;;;;;;4976738;28;20050;-80
2021/07/02 03:49:37;;;;;;;460.50;94.38;;;12.70;99.90;;;;;;4985344;28;20050;-80
2021/07/02 03:52:04;;;;;;;430.98;95.75;;;12.70;99.90;;;;;;4952512;28;20133;-81
2021/07/02 03:54:31;;;;;;;342.88;85.90;;;12.70;99.90;;;;;;4989733;28;20039;-81
2021/07/02 03:57:13;;;;;;;347.88;84.07;;;12.70;99.90;;;;;;4992859;28;20110;-80
2021/07/02 03:59:43;;;;;;;369.05;87.72;;;12.70;99.90;;;;;;4976272;28;20046;-79
2021/07/02 04:02:13;;;;;;;396.38;92.57;;;12.70;99.90;;;;;;5010439;28;20084;-81
2021/07/02 04:04:41;;;;;;;325.73;79.97;;;12.70;99.90;;;;;;4963219;28;20252;-81
2021/07/02 04:07:11;;;;;;;332.77;85.47;;;12.70;99.90;;;;;;4973808;28;20046;-81
2021/07/02 04:09:39;;;;;;;349.00;86.05;;;12.80;99.90;;;;;;4986881;28;20134;-79
2021/07/02 04:12:07;;;;;;;291.42;76.47;;;12.80;99.90;;;;;;4985839;28;20066;-79
2021/07/02 04:14:34;;;;;;;331.90;81.82;;;12.70;99.90;;;;;;4958412;28;20160;-81
2021/07/02 04:17:01;;;;;;;293.25;77.70;;;12.70;99.90;;;;;;4986401;28;20051;-80
2021/07/02 04:19:28;;;;;;;310.30;82.15;;;12.80;99.90;;;;;;4946418;28;20038;-80
2021/07/02 04:21:55;;;;;;;300.90;80.03;;;12.80;99.90;;;;;;4975873;28;20116;-80
2021/07/02 04:24:23;;;;;;;274.92;79.20;;;12.80;99.90;;;;;;4976298;28;20078;-80
2021/07/02 04:27:11;;;;;;;314.40;82.68;;;12.80;99.90;;;;;;4979353;28;20043;-81
2021/07/02 04:29:37;;;;;;;299.30;75.93;;;12.80;99.90;;;;;;4941725;28;20050;-80
2021/07/02 04:32:05;;;;;;;258.45;72.38;;;12.80;99.90;;;;;;4979094;28;20046;-79
2021/07/02 04:34:32;;;;;;;265.38;75.25;;;12.70;99.90;;;;;;4965867;28;20038;-79
2021/07/02 04:36:59;;;;;;;317.33;78.65;;;12.80;99.90;;;;;;4977126;28;20085;-80
2021/07/02 04:39:26;;;;;;;296.48;77.03;;;12.90;99.90;;;;;;4957796;28;20517;-80
2021/07/02 04:41:53;;;;;;;280.35;78.18;;;12.90;99.90;;;;;;4973712;28;20066;-79
2021/07/02 04:44:20;;;;;;;279.55;77.45;;;12.90;99.90;;;;;;4965915;28;20710;-79
2021/07/02 04:46:47;;;;;;;255.38;74.63;;;12.90;99.90;;;;;;4977010;28;20161;-81
2021/07/02 04:49:14;;;;;;;231.50;68.65;;;12.90;99.90;;;;;;5009338;28;20042;-82
2021/07/02 04:51:41;;;;;;;217.45;65.68;;;12.90;99.90;;;;;;4983429;28;20046;-80
2021/07/02 04:54:08;;;;;;;212.00;64.65;;;13.00;99.90;;;;;;4993811;28;20105;-80
2021/07/02 04:56:35;;;;;;;221.73;68.07;;;12.90;99.90;;;;;;4989787;28;20070;-80
2021/07/02 04:59:02;;;;;;;215.65;69.20;;;13.00;99.90;;;;;;5007326;28;20117;-81
2021/07/02 05:01:32;;;;;;;210.07;65.68;;;13.10;99.90;;;;;;4982098;28;20057;-80
2021/07/02 05:03:59;;;;;;;184.30;61.05;;;13.10;99.90;;;;;;4977011;28;20058;-81
2021/07/02 05:06:26;;;;;;;179.73;61.30;;;13.10;99.90;;;;;;4957379;28;20162;-80
2021/07/02 05:08:53;;;;;;;182.80;56.72;;;13.00;99.90;;;;;;4953867;28;20142;-79
2021/07/02 05:11:22;;;;;;;200.75;64.13;;;13.00;99.90;;;;;;4971286;28;20047;-81
2021/07/02 05:13:49;;;;;;;189.68;61.20;;;13.00;99.90;;;;;;4965008;28;20040;-79
2021/07/02 05:16:16;;;;;;;175.13;58.38;;;13.00;99.90;;;;;;4962491;28;20101;-79
2021/07/02 05:18:43;;;;;;;195.30;61.47;;;13.00;99.90;;;;;;4959728;28;20494;-80
2021/07/02 05:21:10;;;;;;;190.38;60.95;;;13.00;99.90;;;;;;4987731;28;20240;-79
2021/07/02 05:23:36;;;;;;;184.55;61.08;;;13.00;99.90;;;;;;4954795;28;20046;-80
2021/07/02 05:26:03;;;;;;;147.07;54.65;;;13.10;99.90;;;;;;4973188;28;20580;-79
2021/07/02 05:28:33;;;;;;;188.73;61.17;;;13.00;99.90;;;;;;4943383;28;20050;-80
2021/07/02 05:31:00;;;;;;;206.30;66.93;;;13.00;99.90;;;;;;4958600;28;20436;-80
2021/07/02 05:33:27;;;;;;;192.68;64.13;;;13.10;99.90;;;;;;4963587;28;20056;-78
2021/07/02 05:35:54;;;;;;;211.48;64.43;;;13.10;99.90;;;;;;4956978;28;20065;-81
2021/07/02 05:38:21;;;;;;;195.05;65.88;;;13.20;99.90;;;;;;4960752;28;20046;-79
2021/07/02 05:40:50;;;;;;;179.15;63.28;;;13.10;99.90;;;;;;4974107;28;20097;-80
2021/07/02 05:43:17;;;;;;;198.43;64.13;;;13.10;99.90;;;;;;4959137;28;20059;-79
2021/07/02 05:45:44;;;;;;;170.50;57.78;;;13.10;99.90;;;;;;4989437;28;20129;-78
2021/07/02 05:48:16;;;;;;;181.57;62.10;;;13.10;99.90;;;;;;4989633;28;20734;-79
2021/07/02 05:50:43;;;;;;;175.38;60.33;;;13.10;99.90;;;;;;4979899;28;20050;-81
2021/07/02 05:53:12;;;;;;;161.10;59.10;;;13.00;99.90;;;;;;4961369;28;20132;-78
2021/07/02 05:55:39;;;;;;;187.05;63.70;;;13.10;99.90;;;;;;4959302;28;20058;-78
2021/07/02 05:58:06;;;;;;;150.68;57.90;;;13.10;99.90;;;;;;4992834;28;20266;-81
2021/07/02 06:00:36;;;;;;;167.15;64.22;;;13.10;99.90;;;;;;4962398;28;20042;-80
2021/07/02 06:03:03;;;;;;;174.13;60.88;;;13.00;99.90;;;;;;4997101;28;20083;-80
2021/07/02 06:05:31;;;;;;;159.45;59.90;;;13.00;99.90;;;;;;4965401;28;20150;-78
2021/07/02 06:07:57;;;;;;;152.38;61.55;;;13.10;99.90;;;;;;4982658;28;20053;-78
2021/07/02 06:10:25;;;;;;;145.90;58.10;;;13.00;99.90;;;;;;4963483;28;20089;-79
2021/07/02 06:12:53;;;;;;;149.07;59.67;;;13.00;99.90;;;;;;4962786;28;20053;-79
2021/07/02 06:15:20;;;;;;;146.73;58.00;;;13.10;99.90;;;;;;4977409;28;20481;-79
2021/07/02 06:17:50;;;;;;;147.35;58.65;;;13.20;99.90;;;;;;4954700;28;20415;-79
2021/07/02 06:20:18;;;;;;;137.35;56.03;;;13.30;99.90;;;;;;4957108;28;20151;-80
2021/07/02 06:22:45;;;;;;;132.60;53.35;;;13.20;99.90;;;;;;4977011;28;20078;-78
2021/07/02 06:25:13;;;;;;;123.60;53.95;;;13.20;99.90;;;;;;4958292;28;20043;-77
2021/07/02 06:27:40;;;;;;;135.10;53.67;;;13.20;99.90;;;;;;4963459;28;20057;-78
2021/07/02 06:30:15;;;;;;;135.18;54.78;;;13.30;99.90;;;;;;4944072;28;20130;-79
2021/07/02 06:32:41;;;;;;;114.15;50.58;;;13.30;99.90;;;;;;4940210;28;20038;-79
2021/07/02 06:35:09;;;;;;;116.05;49.85;;;13.20;99.90;;;;;;4980025;28;20138;-79
2021/07/02 06:37:36;;;;;;;117.18;51.22;;;13.20;99.90;;;;;;4997735;28;20580;-78
2021/07/02 06:40:04;;;;;;;105.07;47.50;;;13.30;99.90;;;;;;4957008;28;20069;-79
2021/07/02 06:42:31;;;;;;;106.03;48.33;;;13.30;99.90;;;;;;4961346;28;20058;-79
2021/07/02 06:44:58;;;;;;;118.28;49.72;;;13.30;99.90;;;;;;4979118;28;20146;-79
2021/07/02 06:47:25;;;;;;;101.20;47.15;;;13.40;99.90;;;;;;4977993;28;20425;-80
2021/07/02 06:49:51;;;;;;;98.40;48.22;;;13.40;99.90;;;;;;5010040;28;20105;-79
2021/07/02 06:52:18;;;;;;;91.65;47.28;;;13.50;99.90;;;;;;4958257;28;20046;-79
2021/07/02 06:54:45;;;;;;;87.63;45.00;;;13.40;99.90;;;;;;4946805;28;20093;-80
2021/07/02 06:57:14;;;;;;;98.28;44.92;;;13.50;99.90;;;;;;4956967;28;20075;-80
2021/07/02 06:59:41;;;;;;;82.88;42.60;;;13.60;99.90;;;;;;5007607;28;20403;-78
2021/07/02 07:02:12;;;;;;;81.53;42.75;;;13.60;99.90;;;;;;4988439;28;20043;-78
2021/07/02 07:04:39;;;;;;;86.90;42.75;;;13.70;99.90;;;;;;4991952;28;20633;-81
2021/07/02 07:07:08;;;;;;;87.05;42.97;;;13.70;99.90;;;;;;4976419;28;20454;-80
2021/07/02 07:09:36;;;;;;;83.20;44.28;;;13.70;99.90;;;;;;4986258;28;20046;-80
2021/07/02 07:12:05;;;;;;;100.55;47.13;;;13.60;99.90;;;;;;4975848;28;20061;-80
2021/07/02 07:14:32;;;;;;;94.38;46.47;;;13.60;99.90;;;;;;4960151;28;20053;-79
2021/07/02 07:16:59;;;;;;;100.00;47.08;;;13.60;99.90;;;;;;4990463;28;20046;-79
2021/07/02 07:19:28;;;;;;;92.47;46.55;;;13.70;99.90;;;;;;4979760;28;20101;-80
2021/07/02 07:21:56;;;;;;;97.30;45.97;;;13.70;99.90;;;;;;4977636;28;20052;-81
2021/07/02 07:24:23;;;;;;;90.15;46.03;;;13.70;99.90;;;;;;4970061;28;20066;-79
2021/07/02 07:26:57;;;;;;;88.40;44.50;;;13.70;99.90;;;;;;4961086;28;20055;-80
2021/07/02 07:29:25;;;;;;;94.00;43.63;;;13.80;99.90;;;;;;4992551;28;20350;-79
2021/07/02 07:31:53;;;;;;;95.45;45.58;;;13.70;99.90;;;;;;4978393;28;20053;-81
2021/07/02 07:37:04;;;;;;;94.38;45.67;;;13.80;99.90;;;;;;4992072;28;20053;-80
2021/07/02 07:39:31;;;;;;;89.90;46.15;;;13.90;99.90;;;;;;4967611;28;20421;-82
2021/07/02 07:41:58;;;;;;;90.97;48.78;;;13.80;99.90;;;;;;4976727;28;20683;-79
2021/07/02 07:44:25;;;;;;;96.07;47.38;;;13.80;99.90;;;;;;4949742;28;20054;-80
2021/07/02 07:46:53;;;;;;;97.00;48.78;;;13.80;99.90;;;;;;4943550;28;20105;-80
2021/07/02 07:49:20;;;;;;;94.35;47.45;;;13.90;99.90;;;;;;4948398;28;20049;-79
2021/07/02 07:51:50;;;;;;;95.30;48.33;;;13.80;99.90;;;;;;4975854;28;20034;-80
2021/07/02 07:54:17;;;;;;;95.13;48.13;;;13.70;99.90;;;;;;4993482;28;20129;-80
2021/07/02 07:56:50;;;;;;;94.78;49.75;;;13.80;99.90;;;;;;4961545;28;20042;-79
2021/07/02 07:59:19;;;;;;;91.53;46.25;;;13.90;99.90;;;;;;4963174;28;20052;-78
2021/07/02 08:01:46;;;;;;;80.63;42.97;;;14.00;99.90;;;;;;4963168;28;20050;-79
2021/07/02 08:04:14;;;;;;;86.93;46.92;;;14.10;99.90;;;;;;4995771;28;20072;-81
2021/07/02 08:06:43;;;;;;;86.13;46.85;;;14.20;99.90;;;;;;4997667;28;20077;-79
2021/07/02 08:09:11;;;;;;;80.68;45.63;;;14.30;99.90;;;;;;4990906;28;20030;-78
2021/07/02 08:11:40;;;;;;;72.32;42.17;;;14.40;99.90;;;;;;4967410;28;20054;-80
2021/07/02 08:14:08;;;;;;;79.25;42.83;;;14.40;99.90;;;;;;4972390;28;20042;-79
2021/07/02 08:16:35;;;;;;;84.90;43.55;;;14.30;99.90;;;;;;4979273;28;20061;-78
2021/07/02 08:19:03;;;;;;;81.93;44.53;;;14.50;99.90;;;;;;5003988;28;20121;-79
2021/07/02 08:21:30;;;;;;;65.43;38.55;;;14.70;99.90;;;;;;4954387;28;20070;-79
2021/07/02 08:23:57;;;;;;;58.47;35.90;;;14.80;99.90;;;;;;4977322;28;20054;-79
2021/07/02 08:26:26;;;;;;;72.40;41.70;;;14.90;99.90;;;;;;4976724;28;20114;-80
2021/07/02 08:31:39;;;;;;;61.80;36.65;;;15.00;99.90;;;;;;4980891;28;20060;-74
2021/07/02 08:34:06;;;;;;;57.28;34.22;;;15.00;99.90;;;;;;5000855;28;20566;-75
2021/07/02 08:36:33;;;;;;;63.80;39.65;;;15.00;99.90;;;;;;4955557;28;20041;-75
2021/07/02 08:39:01;;;;;;;57.55;36.92;;;15.10;99.90;;;;;;5016840;28;20120;-74
2021/07/02 08:41:28;;;;;;;57.30;32.38;;;15.30;99.90;;;;;;5015745;28;20045;-74
2021/07/02 08:43:55;;;;;;;50.67;34.08;;;15.30;99.90;;;;;;4990728;28;20057;-74
2021/07/02 08:46:29;;;;;;;60.33;37.72;;;15.30;99.90;;;;;;5049806;28;20550;-75
2021/07/02 08:48:59;;;;;;;58.42;34.55;;;15.40;99.90;;;;;;5004632;28;20076;-75
2021/07/02 08:51:26;;;;;;;51.65;32.50;;;15.50;99.90;;;;;;5026881;28;20080;-75
2021/07/02 08:53:54;;;;;;;51.30;29.98;;;15.50;99.90;;;;;;5009829;28;20441;-76
2021/07/02 08:56:21;;;;;;;44.33;30.08;;;15.70;99.90;;;;;;5018919;28;20054;-75
2021/07/02 08:58:48;;;;;;;41.13;27.63;;;15.70;99.90;;;;;;5021892;28;20046;-75
2021/07/02 09:01:39;;;;;;;42.08;29.52;;;15.70;99.90;;;;;;5008318;28;20057;-75
2021/07/02 09:04:34;;;;;;;41.97;27.77;;;15.80;99.90;;;;;;5023019;28;20048;-76
2021/07/02 09:07:10;;;;;;;43.75;26.73;;;15.70;99.90;;;;;;5029083;28;20132;-75
2021/07/02 09:09:47;;;;;;;37.88;25.20;;;15.80;99.90;;;;;;5022800;28;20061;-75
2021/07/02 09:12:21;;;;;;;36.92;25.95;;;15.60;99.90;;;;;;5035974;28;20041;-75
2021/07/02 09:15:06;;;;;;;38.45;25.17;;;15.40;99.90;;;;;;5022508;28;20084;-74
2021/07/02 09:17:37;;;;;;;;;;;15.40;99.90;;;;;;5024138;28;20049;-76
2021/07/02 09:20:23;;;;;;;33.40;21.95;;;15.40;99.90;;;;;;5039763;28;20008;-75
2021/07/02 09:22:52;;;;;;;40.92;24.77;;;15.30;99.90;;;;;;5054707;28;20106;-75
2021/07/02 09:25:27;;;;;;;36.53;22.83;;;15.30;99.90;;;;;;5042280;28;20053;-75
2021/07/02 09:27:57;;;;;;;40.60;24.83;;;15.30;99.90;;;;;;5028556;28;20056;-75
2021/07/02 09:30:27;;;;;;;31.40;22.17;;;15.40;99.90;;;;;;4987637;28;20037;-75
2021/07/02 09:33:09;;;;;;;31.27;19.63;;;15.40;99.90;;;;;;5027457;28;20130;-76
2021/07/02 09:35:45;;;;;;;26.95;20.20;;;15.40;99.90;;;;;;5011755;28;20061;-75
2021/07/02 09:38:15;;;;;;;34.80;20.17;;;15.40;99.90;;;;;;5006409;23;20231;-75
2021/07/02 09:40:43;;;;;;;27.52;18.88;;;15.50;99.90;;;;;;4955127;28;20166;-75
2021/07/02 09:43:12;;;;;;;23.05;17.23;;;15.50;99.90;;;;;;4953913;28;20529;-74
2021/07/02 09:45:48;;;;;;;24.33;18.38;;;15.50;99.90;;;;;;4977321;28;20474;-75
2021/07/02 09:48:17;;;;;;;25.23;17.67;;;15.50;99.90;;;;;;4977381;28;20059;-75
2021/07/02 09:50:49;;;;;;;26.05;19.17;;;15.60;99.90;;;;;;4960325;28;20050;-75
2021/07/02 09:53:19;;;;;;;26.52;17.83;;;15.70;99.90;;;;;;4969672;28;20061;-74
2021/07/02 09:55:53;;;;;;;27.08;19.45;;;15.70;99.90;;;;;;4959872;28;20205;-74
2021/07/02 09:58:26;;;;;;;30.35;20.42;;;15.70;99.90;;;;;;4954804;28;20059;-75
2021/07/02 10:00:59;;;;;;;32.75;22.00;;;15.80;99.90;;;;;;4950834;28;20485;-74
2021/07/02 10:03:38;;;;;;;33.28;22.58;;;15.80;99.90;;;;;;4940388;28;20467;-75
2021/07/02 10:06:18;;;;;;;34.22;21.83;;;15.80;99.90;;;;;;4950631;28;20058;-74
2021/07/02 10:08:48;;;;;;;29.13;21.10;;;15.90;99.90;;;;;;4995366;28;20496;-73
2021/07/02 10:11:15;;;;;;;29.85;20.30;;;15.90;99.90;;;;;;4954478;28;20267;-76
2021/07/02 10:13:44;;;;;;;28.10;19.35;;;15.80;99.90;;;;;;4938630;28;20522;-75
2021/07/02 10:16:13;;;;;;;32.17;20.60;;;15.80;99.90;;;;;;4951570;28;20611;-75
2021/07/02 10:18:51;;;;;;;29.15;18.95;;;15.60;99.90;;;;;;4963164;28;20615;-75
2021/07/02 10:21:22;;;;;;;31.35;18.63;;;15.60;99.90;;;;;;4958236;28;20055;-76
2021/07/02 10:23:53;;;;;;;28.33;18.10;;;15.60;99.90;;;;;;4928230;28;20089;-75
2021/07/02 10:26:21;;;;;;;29.30;19.45;;;15.70;99.90;;;;;;4937696;28;20055;-76
2021/07/02 10:28:49;;;;;;;27.65;17.85;;;15.60;99.90;;;;;;4938245;28;20047;-75
2021/07/02 10:31:17;;;;;;;23.42;16.30;;;15.50;99.90;;;;;;4958981;28;20050;-75
2021/07/02 10:33:45;;;;;;;27.95;19.70;;;15.60;99.90;;;;;;4960802;28;20056;-75
2021/07/02 10:36:14;;;;;;;26.38;18.95;;;15.60;99.90;;;;;;4964173;28;20054;-75
2021/07/02 10:38:47;;;;;;;28.77;19.20;;;15.60;99.90;;;;;;4972564;28;20046;-76
2021/07/02 10:41:21;;;;;;;24.35;18.45;;;15.70;99.90;;;;;;4974070;28;20275;-76
2021/07/02 10:44:11;;;;;;;31.88;18.48;;;15.70;99.90;;;;;;4965927;28;20117;-75
2021/07/02 10:46:47;;;;;;;31.15;19.27;;;15.60;99.90;;;;;;4961735;28;20051;-75
2021/07/02 10:49:16;;;;;;;27.45;18.90;;;15.70;99.90;;;;;;4964549;28;20065;-76
2021/07/02 10:51:50;;;;;;;26.83;19.27;;;15.80;99.90;;;;;;4932165;28;20514;-74
2021/07/02 10:54:28;;;;;;;31.38;19.90;;;15.70;99.90;;;;;;4952660;28;20113;-75
2021/07/02 10:56:57;;;;;;;33.22;20.70;;;15.70;99.90;;;;;;4960071;28;20051;-74
2021/07/02 10:59:37;;;;;;;35.28;20.95;;;15.70;99.90;;;;;;4962960;28;20078;-76
2021/07/02 11:02:08;;;;;;;30.73;22.40;;;15.80;99.90;;;;;;4947490;28;20050;-75
2021/07/02 11:04:40;;;;;;;33.13;21.48;;;15.90;99.90;;;;;;4960735;28;20066;-75
2021/07/02 11:07:13;;;;;;;34.40;22.55;;;15.90;99.90;;;;;;4956682;28;20046;-75
2021/07/02 11:12:20;;;;;;;37.30;25.73;;;15.80;99.90;;;;;;4945174;28;20118;-75
2021/07/02 11:15:11;;;;;;;31.83;24.50;;;15.90;99.90;;;;;;4946623;28;20460;-76
2021/07/02 11:17:40;;;;;;;32.45;24.92;;;16.00;99.90;;;;;;4938466;28;20102;-76
2021/07/02 11:22:44;;;;;;;39.05;26.17;;;15.90;99.90;;;;;;4953023;28;20043;-76
2021/07/02 11:25:16;;;;;;;39.00;25.88;;;15.80;99.90;;;;;;4951877;28;20313;-76
2021/07/02 11:27:53;;;;;;;38.15;26.20;;;16.00;99.90;;;;;;4936839;28;20051;-76
2021/07/02 11:30:24;;;;;;;35.67;23.20;;;16.10;99.90;;;;;;4944564;28;20050;-76
2021/07/02 11:32:58;;;;;;;35.80;25.90;;;16.30;99.90;;;;;;4949700;28;20455;-76
2021/07/02 11:35:37;;;;;;;28.10;23.55;;;16.40;99.90;;;;;;4954829;28;20575;-76
2021/07/02 11:38:05;;;;;;;40.28;24.30;;;16.40;99.90;;;;;;4958490;28;20042;-76
2021/07/02 11:40:35;;;;;;;34.30;24.38;;;16.30;99.90;;;;;;4952683;28;20050;-74
2021/07/02 11:43:37;;;;;;;29.98;23.02;;;16.30;99.90;;;;;;4926471;28;20043;-75
2021/07/02 11:46:06;;;;;;;32.25;22.95;;;16.30;99.90;;;;;;4944292;28;20052;-75
2021/07/02 11:48:38;;;;;;;30.83;23.05;;;16.50;99.90;;;;;;4955638;28;20157;-76
2021/07/02 11:51:14;;;;;;;30.45;22.42;;;16.50;99.90;;;;;;4956863;28;20543;-76
2021/07/02 11:53:50;;;;;;;31.65;23.40;;;16.40;99.90;;;;;;4960698;28;20046;-76
2021/07/02 11:56:22;;;;;;;33.70;23.40;;;16.50;99.90;;;;;;4985200;28;20058;-74
2021/07/02 11:58:52;;;;;;;36.55;22.60;;;16.70;99.90;;;;;;4954584;28;20055;-76
2021/07/02 12:01:24;;;;;;;30.85;24.52;;;16.90;99.90;;;;;;4931763;28;20165;-75
2021/07/02 12:03:53;;;;;;;30.02;24.30;;;17.10;99.90;;;;;;4964482;28;20522;-74
2021/07/02 12:06:29;;;;;;;35.50;26.17;;;17.20;99.90;;;;;;4972286;28;20055;-75
2021/07/02 12:09:04;;;;;;;34.28;23.58;;;17.30;99.90;;;;;;4959075;28;20065;-75
2021/07/02 12:11:35;;;;;;;32.70;24.65;;;17.50;99.90;;;;;;4959283;28;20054;-75
2021/07/02 12:14:03;;;;;;;33.45;25.98;;;17.60;99.90;;;;;;4934714;28;20042;-76
2021/07/02 12:16:36;;;;;;;31.55;25.10;;;17.70;99.90;;;;;;4964312;28;20058;-75
2021/07/02 12:19:06;;;;;;;35.60;26.17;;;18.00;99.90;;;;;;4962880;28;20074;-75
2021/07/02 12:21:36;;;;;;;33.47;25.90;;;18.40;99.90;;;;;;4979424;28;20048;-76
2021/07/02 12:24:06;;;;;;;25.67;22.80;;;18.40;99.90;;;;;;4956088;28;20051;-76
2021/07/02 12:26:36;;;;;;;33.10;23.52;;;18.50;99.90;;;;;;4954669;28;20062;-76
2021/07/02 12:29:13;;;;;;;28.42;23.75;;;18.60;99.90;;;;;;4952749;28;20507;-76
2021/07/02 12:31:47;;;;;;;29.48;23.25;;;18.70;99.90;;;;;;4972341;28;20055;-76
2021/07/02 12:34:32;;;;;;;24.15;20.98;;;18.80;99.90;;;;;;4963123;28;20050;-76
2021/07/02 12:36:59;;;;;;;27.02;22.42;;;18.70;99.90;;;;;;4962963;28;20058;-75
2021/07/02 12:39:33;;;;;;;31.20;23.65;;;18.70;99.90;;;;;;4974024;28;20132;-76
2021/07/02 12:42:08;;;;;;;29.73;23.63;;;19.00;99.90;;;;;;4933202;28;20153;-76
2021/07/02 12:44:37;;;;;;;25.90;23.10;;;19.10;99.90;;;;;;4954016;28;20439;-75